Latest Coastal Weather Observations for Bedout Island

IDW60701

Issued at 4:32 am WST Saturday 4 July 2015 (issued every 10 minutes, with the page automatically refreshed every 10 minutes)

About coastal observations | Map of coastal stations | Coastal observations for WA | Marine services | Other Formats
Station Details ID: 004100 Name: BEDOUT ISLAND Lat: -19.59 Lon: 119.10 Height: 8.6 m
Data from the previous 72 hours. | See also: Recent months for locations in Western Australia
Date/Time
WST
Temp

°C
Wind Pressure Rain
since 9am
mm
Weather Cloud Vis
km
Sea
Height
m
Swell
Dir
 
Speed
knots
Gust
knots
hPa Trend Height
m
Period
s
Dir
04/04:30am 22.0 ESE 18 20 1017.5 - - - - - - - - -
04/04:00am 22.2 ESE 18 20 1017.5 - - - - - - - - -
04/03:30am 22.5 ESE 21 24 1017.4 - - - - - - - - -
04/03:00am 22.7 SE 19 22 1017.2 - - - - - - - - -
04/02:30am 23.1 ESE 22 25 1017.3 - - - - - - - - -
04/02:00am 22.9 SE 19 22 1017.5 - - - - - - - - -
04/01:30am 22.6 SE 17 19 1017.6 - - - - - - - - -
04/01:00am 22.6 SE 16 19 1017.8 - - - - - - - - -
04/12:30am 22.8 SE 16 18 1017.9 - - - - - - - - -
04/12:00am 23.0 SE 15 17 1017.8 - - - - - - - - -
 
Date/Time
WST
Temp

°C
Wind Pressure Rain
since 9am
mm
Weather Cloud Vis
km
Sea
Height
m
Swell
Dir
 
Speed
knots
Gust
knots
hPa Trend Height
m
Period
s
Dir
03/11:30pm 23.1 SE 14 16 1018.0 - - - - - - - - -
03/11:00pm 22.8 SE 14 17 1018.2 - - - - - - - - -
03/10:30pm 22.7 SSE 13 15 1018.2 - - - - - - - - -
03/10:00pm 22.4 S 12 14 1018.3 - - - - - - - - -
03/09:30pm 22.2 S 10 12 1018.2 - - - - - - - - -
03/09:00pm 22.1 S 10 11 1018.1 - - - - - - - - -
03/08:30pm 21.7 S 9 11 1018.1 - - - - - - - - -
03/08:00pm 22.0 S 10 11 1017.9 - - - - - - - - -
03/07:30pm 21.8 SSW 10 12 1017.7 - - - - - - - - -
03/07:00pm 21.3 SSW 9 10 1017.5 - - - - - - - - -
03/06:30pm 21.3 SSW 9 10 1017.2 - - - - - - - - -
03/06:00pm 21.4 SW 7 9 1017.0 - - - - - - - - -
03/05:30pm 22.2 SW 7 8 1016.9 - - - - - - - - -
03/05:00pm 24.1 S 6 8 1016.7 - - - - - - - - -
03/04:30pm 24.9 ENE 5 6 1016.4 - - - - - - - - -
03/04:00pm 25.4 ENE 7 8 1016.3 - - - - - - - - -
03/03:30pm 25.7 E 8 9 1016.2 - - - - - - - - -
03/03:00pm 25.9 E 9 10 1016.3 - - - - - - - - -
03/02:30pm 26.1 E 10 11 1016.5 - - - - - - - - -
03/02:00pm 26.2 ESE 10 11 1016.8 - - - - - - - - -
03/01:30pm 26.6 E 10 11 1017.4 - - - - - - - - -
03/01:00pm 26.1 E 13 14 1017.7 - - - - - - - - -
03/12:30pm 25.8 E 14 16 1018.2 - - - - - - - - -
03/12:00pm 25.3 E 16 18 1018.5 - - - - - - - - -
03/11:30am 25.1 ESE 18 21 1019.1 - - - - - - - - -
03/11:00am 24.7 ESE 19 22 1019.4 - - - - - - - - -
03/10:30am 24.6 ESE 18 21 1019.8 - - - - - - - - -
03/10:00am 24.3 ESE 16 18 1020.1 - - - - - - - - -
03/09:30am 23.7 ESE 19 22 1020.1 - - - - - - - - -
03/09:00am 23.4 ESE 19 22 1019.9 - - - - - - - - -
03/08:30am 22.9 SE 22 26 1019.6 - - - - - - - - -
03/08:00am 22.5 SE 20 24 1019.3 - - - - - - - - -
03/07:30am 21.8 SE 21 23 1019.2 - - - - - - - - -
03/07:00am 21.5 ESE 18 22 1019.0 - - - - - - - - -
03/06:30am 21.2 SE 17 21 1018.6 - - - - - - - - -
03/06:00am 21.4 ESE 20 24 1018.3 - - - - - - - - -
03/05:30am 21.7 ESE 20 23 1018.2 - - - - - - - - -
03/05:00am 21.9 SE 20 24 1018.0 - - - - - - - - -
03/04:30am 22.3 ESE 21 25 1017.8 - - - - - - - - -
03/04:00am 22.6 ESE 19 22 1017.9 - - - - - - - - -
03/03:30am 22.5 SE 16 19 1018.0 - - - - - - - - -
03/03:00am 22.2 SE 15 17 1018.0 - - - - - - - - -
03/02:30am 21.4 SE 13 16 1018.2 - - - - - - - - -
03/02:00am 20.8 S 11 13 1018.4 - - - - - - - - -
03/01:30am 21.2 S 12 13 1018.7 - - - - - - - - -
03/01:00am 21.1 S 9 11 1018.7 - - - - - - - - -
03/12:30am 21.2 S 9 10 1018.9 - - - - - - - - -
03/12:00am 21.1 S 8 9 1019.1 - - - - - - - - -
 
Date/Time
WST
Temp

°C
Wind Pressure Rain
since 9am
mm
Weather Cloud Vis
km
Sea
Height
m
Swell
Dir
 
Speed
knots
Gust
knots
hPa Trend Height
m
Period
s
Dir
02/11:30pm 21.0 S 8 9 1019.3 - - - - - - - - -
02/11:00pm 21.1 S 8 9 1019.5 - - - - - - - - -
02/10:30pm 21.0 S 8 9 1019.5 - - - - - - - - -
02/10:00pm 21.2 S 9 11 1019.6 - - - - - - - - -
02/09:30pm 21.5 SSW 9 12 1019.4 - - - - - - - - -
02/09:00pm 21.5 SSW 11 15 1019.2 - - - - - - - - -
02/08:30pm 22.4 CALM 0 0 1019.2 - - - - - - - - -
02/08:00pm 22.6 N 4 5 1019.0 - - - - - - - - -
02/07:30pm 22.0 NNE 5 6 1018.8 - - - - - - - - -
02/07:00pm 22.6 NNE 5 6 1018.6 - - - - - - - - -
02/06:30pm 22.0 N 5 6 1018.4 - - - - - - - - -
02/06:00pm 22.4 ENE 5 6 1018.0 - - - - - - - - -
02/05:30pm 22.6 ENE 4 5 1018.1 - - - - - - - - -
02/05:00pm 23.7 ENE 5 5 1018.0 - - - - - - - - -
02/04:30pm 24.5 ENE 7 9 1018.1 - - - - - - - - -
02/04:00pm 25.1 ENE 8 9 1018.0 - - - - - - - - -
02/03:30pm 25.3 E 10 11 1017.9 - - - - - - - - -
02/03:00pm 25.5 ENE 11 12 1017.7 - - - - - - - - -
02/02:30pm 25.6 E 14 15 1017.9 - - - - - - - - -
02/02:00pm 25.8 E 14 16 1018.2 - - - - - - - - -
02/01:30pm 25.6 E 16 18 1018.6 - - - - - - - - -
02/01:00pm 25.7 E 14 17 1018.9 - - - - - - - - -
02/12:30pm 25.5 E 16 18 1019.3 - - - - - - - - -
02/12:00pm 25.3 E 18 21 1019.6 - - - - - - - - -
02/11:30am 25.4 E 17 19 1020.2 - - - - - - - - -
02/11:00am 25.3 E 17 19 1020.6 - - - - - - - - -
02/10:30am 25.3 ESE 18 19 1020.8 - - - - - - - - -
02/10:00am 25.1 E 18 21 1021.1 - - - - - - - - -
02/09:30am 24.9 ESE 14 16 1021.2 - - - - - - - - -
02/09:00am 24.2 ESE 15 17 1021.0 - - - - - - - - -
02/08:30am 23.7 E 14 15 1020.9 - - - - - - - - -
02/08:00am 23.2 ESE 14 16 1020.7 - - - - - - - - -
02/07:30am 22.5 ESE 13 16 1020.4 - - - - - - - - -
02/07:00am 22.0 ESE 14 16 1019.9 - - - - - - - - -
02/06:30am 21.5 ESE 14 16 1019.7 - - - - - - - - -
02/06:00am 21.7 SE 14 16 1019.4 - - - - - - - - -
02/05:30am 21.4 SE 14 16 1019.3 - - - - - - - - -
02/05:00am 21.3 SE 13 15 1019.1 - - - - - - - - -
02/04:30am 21.5 SE 14 17 1019.2 - - - - - - - - -
02/04:00am 21.6 SSE 13 16 1019.2 - - - - - - - - -
02/03:30am 21.2 SSE 14 16 1019.3 - - - - - - - - -
02/03:00am 21.2 SSE 13 15 1019.1 - - - - - - - - -
02/02:30am 21.4 SSE 13 15 1019.4 - - - - - - - - -
02/02:00am 21.2 SSE 13 15 1019.6 - - - - - - - - -
02/01:30am 21.5 SSE 13 15 1019.7 - - - - - - - - -
02/01:00am 20.8 SSE 11 13 1019.9 - - - - - - - - -
02/12:30am 20.8 S 10 12 1020.0 - - - - - - - - -
02/12:00am 20.5 S 11 13 1020.0 - - - - - - - - -
 
Date/Time
WST
Temp

°C
Wind Pressure Rain
since 9am
mm
Weather Cloud Vis
km
Sea
Height
m
Swell
Dir
 
Speed
knots
Gust
knots
hPa Trend Height
m
Period
s
Dir
01/11:30pm 20.4 S 11 13 1020.1 - - - - - - - - -
01/11:00pm 21.1 S 10 13 1020.2 - - - - - - - - -
01/10:30pm 21.2 NNE 6 8 1020.1 - - - - - - - - -
01/10:00pm 21.2 NNE 6 6 1020.2 - - - - - - - - -
01/09:30pm 21.7 NNE 5 6 1020.3 - - - - - - - - -
01/09:00pm 22.4 NNE 4 4 1020.1 - - - - - - - - -
01/08:30pm 21.9 NNE 5 5 1020.0 - - - - - - - - -
01/08:00pm 22.5 NNE 3 4 1019.8 - - - - - - - - -
01/07:30pm 22.6 NNE 4 5 1019.6 - - - - - - - - -
01/07:00pm 22.1 NNE 5 6 1019.3 - - - - - - - - -
01/06:30pm 21.8 NNE 6 7 1019.0 - - - - - - - - -
01/06:00pm 21.9 NE 6 7 1018.7 - - - - - - - - -
01/05:30pm 22.8 ENE 6 7 1018.7 - - - - - - - - -
01/05:00pm 24.0 E 8 8 1018.6 - - - - - - - - -
01/04:30pm 24.8 E 8 9 1018.5 - - - - - - - - -
01/04:00pm 25.4 E 10 11 1018.3 - - - - - - - - -
01/03:30pm 25.8 E 11 13 1018.3 - - - - - - - - -
01/03:00pm 25.9 E 13 15 1018.1 - - - - - - - - -
01/02:30pm 26.1 E 14 15 1018.3 - - - - - - - - -
01/02:00pm 26.5 E 13 15 1018.6 - - - - - - - - -
01/01:30pm 26.2 E 15 17 1018.8 - - - - - - - - -
01/01:00pm 26.0 E 16 18 1019.1 - - - - - - - - -
01/12:30pm 25.6 E 17 19 1019.6 - - - - - - - - -
01/12:00pm 25.4 E 17 19 1020.1 - - - - - - - - -
01/11:30am 24.8 E 19 21 1020.6 - - - - - - - - -
01/11:00am 24.5 ESE 17 19 1021.0 - - - - - - - - -
01/10:30am 24.4 E 17 20 1021.4 - - - - - - - - -
01/10:00am 24.2 E 18 21 1021.5 - - - - - - - - -
01/09:30am 23.7 ESE 17 20 1021.7 - - - - - - - - -
01/09:00am 23.5 ESE 14 16 1021.4 - - - - - - - - -
01/08:30am 23.2 ESE 15 17 1021.2 - - - - - - - - -
01/08:00am 22.7 ESE 15 17 1020.8 - - - - - - - - -
01/07:30am 22.3 E 17 19 1020.5 - - - - - - - - -
01/07:00am 22.0 ESE 17 19 1020.3 - - - - - - - - -
01/06:30am 21.5 ESE 16 18 1019.9 - - - - - - - - -
01/06:00am 21.3 ESE 16 19 1019.4 - - - - - - - - -
01/05:30am 20.9 ESE 16 18 1019.4 - - - - - - - - -
01/05:00am 21.0 ESE 17 19 1019.3 - - - - - - - - -

Other Formats:

Comma delimited format used in spreadsheet applications
http://www.bom.gov.au/fwo/IDW60701/IDW60701.94310.axf

JavaScript Object Notation format (JSON) in row-major order
http://www.bom.gov.au/fwo/IDW60701/IDW60701.94310.json